sensor_id;sensor_type;location;lat;lon;timestamp;P1;durP1;ratioP1;P2;durP2;ratioP2
67696;SDS011;54486;51.442;6.778;2023-04-01T00:00:22;9.88;;;3.28;;
67696;SDS011;54486;51.442;6.778;2023-04-01T00:02:50;11.60;;;2.80;;
67696;SDS011;54486;51.442;6.778;2023-04-01T00:05:19;9.55;;;3.13;;
67696;SDS011;54486;51.442;6.778;2023-04-01T00:07:46;8.27;;;2.30;;
67696;SDS011;54486;51.442;6.778;2023-04-01T00:10:14;7.10;;;1.88;;
67696;SDS011;54486;51.442;6.778;2023-04-01T00:12:43;8.27;;;2.00;;
67696;SDS011;54486;51.442;6.778;2023-04-01T00:15:11;6.60;;;1.90;;
67696;SDS011;54486;51.442;6.778;2023-04-01T00:17:39;5.97;;;1.67;;
67696;SDS011;54486;51.442;6.778;2023-04-01T00:20:06;6.32;;;1.20;;
67696;SDS011;54486;51.442;6.778;2023-04-01T00:22:35;6.25;;;1.70;;
67696;SDS011;54486;51.442;6.778;2023-04-01T00:25:03;5.97;;;1.67;;
67696;SDS011;54486;51.442;6.778;2023-04-01T00:27:31;5.70;;;1.53;;
67696;SDS011;54486;51.442;6.778;2023-04-01T00:29:58;5.78;;;1.60;;
67696;SDS011;54486;51.442;6.778;2023-04-01T00:32:26;6.53;;;1.70;;
67696;SDS011;54486;51.442;6.778;2023-04-01T00:34:53;5.97;;;1.75;;
67696;SDS011;54486;51.442;6.778;2023-04-01T00:37:21;6.70;;;1.77;;
67696;SDS011;54486;51.442;6.778;2023-04-01T00:39:50;6.88;;;2.20;;
67696;SDS011;54486;51.442;6.778;2023-04-01T00:42:18;7.72;;;2.10;;
67696;SDS011;54486;51.442;6.778;2023-04-01T00:44:52;7.57;;;2.10;;
67696;SDS011;54486;51.442;6.778;2023-04-01T00:47:22;7.53;;;2.30;;
67696;SDS011;54486;51.442;6.778;2023-04-01T00:49:52;7.22;;;2.20;;
67696;SDS011;54486;51.442;6.778;2023-04-01T00:52:23;11.00;;;4.05;;
67696;SDS011;54486;51.442;6.778;2023-04-01T00:54:54;12.02;;;4.18;;
67696;SDS011;54486;51.442;6.778;2023-04-01T00:57:31;9.57;;;3.40;;
67696;SDS011;54486;51.442;6.778;2023-04-01T01:00:06;8.48;;;3.40;;
67696;SDS011;54486;51.442;6.778;2023-04-01T01:02:36;9.05;;;3.63;;
67696;SDS011;54486;51.442;6.778;2023-04-01T01:05:05;11.82;;;3.70;;
67696;SDS011;54486;51.442;6.778;2023-04-01T01:10:23;8.25;;;2.70;;
67696;SDS011;54486;51.442;6.778;2023-04-01T01:15:29;7.38;;;2.30;;
67696;SDS011;54486;51.442;6.778;2023-04-01T01:18:09;8.40;;;2.20;;
67696;SDS011;54486;51.442;6.778;2023-04-01T01:23:56;7.57;;;2.67;;
67696;SDS011;54486;51.442;6.778;2023-04-01T01:35:16;6.75;;;2.03;;
67696;SDS011;54486;51.442;6.778;2023-04-01T01:37:49;6.63;;;1.60;;
67696;SDS011;54486;51.442;6.778;2023-04-01T01:40:21;7.65;;;1.95;;
67696;SDS011;54486;51.442;6.778;2023-04-01T01:42:55;7.07;;;2.10;;
67696;SDS011;54486;51.442;6.778;2023-04-01T01:45:27;7.97;;;2.63;;
67696;SDS011;54486;51.442;6.778;2023-04-01T01:47:56;8.27;;;2.20;;
67696;SDS011;54486;51.442;6.778;2023-04-01T01:50:24;7.05;;;2.13;;
67696;SDS011;54486;51.442;6.778;2023-04-01T01:53:01;7.00;;;2.05;;
67696;SDS011;54486;51.442;6.778;2023-04-01T01:55:31;7.15;;;1.80;;
67696;SDS011;54486;51.442;6.778;2023-04-01T01:58:03;6.95;;;1.90;;
67696;SDS011;54486;51.442;6.778;2023-04-01T02:00:52;6.00;;;1.90;;
67696;SDS011;54486;51.442;6.778;2023-04-01T02:03:23;6.65;;;1.75;;
67696;SDS011;54486;51.442;6.778;2023-04-01T02:05:53;6.80;;;2.00;;
67696;SDS011;54486;51.442;6.778;2023-04-01T02:08:35;7.13;;;1.75;;
67696;SDS011;54486;51.442;6.778;2023-04-01T02:11:35;5.95;;;1.50;;
67696;SDS011;54486;51.442;6.778;2023-04-01T02:14:06;7.38;;;1.70;;
67696;SDS011;54486;51.442;6.778;2023-04-01T02:19:14;4.60;;;1.20;;
67696;SDS011;54486;51.442;6.778;2023-04-01T02:21:50;6.47;;;1.48;;
67696;SDS011;54486;51.442;6.778;2023-04-01T02:24:21;4.77;;;1.10;;
67696;SDS011;54486;51.442;6.778;2023-04-01T02:26:52;5.38;;;1.40;;
67696;SDS011;54486;51.442;6.778;2023-04-01T02:29:22;4.55;;;1.25;;
67696;SDS011;54486;51.442;6.778;2023-04-01T02:31:55;6.00;;;1.33;;
67696;SDS011;54486;51.442;6.778;2023-04-01T02:34:24;5.05;;;1.38;;
67696;SDS011;54486;51.442;6.778;2023-04-01T02:36:52;5.80;;;1.30;;
67696;SDS011;54486;51.442;6.778;2023-04-01T02:39:22;8.60;;;1.98;;
67696;SDS011;54486;51.442;6.778;2023-04-01T02:41:50;6.87;;;1.80;;
67696;SDS011;54486;51.442;6.778;2023-04-01T02:44:16;5.47;;;1.40;;
67696;SDS011;54486;51.442;6.778;2023-04-01T02:46:44;5.60;;;1.40;;
67696;SDS011;54486;51.442;6.778;2023-04-01T02:49:11;7.05;;;1.63;;
67696;SDS011;54486;51.442;6.778;2023-04-01T02:51:39;8.77;;;1.98;;
67696;SDS011;54486;51.442;6.778;2023-04-01T02:54:06;7.75;;;2.40;;
67696;SDS011;54486;51.442;6.778;2023-04-01T02:56:35;6.88;;;2.08;;
67696;SDS011;54486;51.442;6.778;2023-04-01T02:59:02;8.23;;;3.00;;
67696;SDS011;54486;51.442;6.778;2023-04-01T03:01:29;8.38;;;2.40;;
67696;SDS011;54486;51.442;6.778;2023-04-01T03:03:57;7.78;;;2.60;;
67696;SDS011;54486;51.442;6.778;2023-04-01T03:06:24;8.88;;;2.33;;
67696;SDS011;54486;51.442;6.778;2023-04-01T03:08:50;8.93;;;2.85;;
67696;SDS011;54486;51.442;6.778;2023-04-01T03:11:17;8.43;;;2.83;;
67696;SDS011;54486;51.442;6.778;2023-04-01T03:13:44;9.55;;;2.90;;
67696;SDS011;54486;51.442;6.778;2023-04-01T03:16:12;8.90;;;2.60;;
67696;SDS011;54486;51.442;6.778;2023-04-01T03:18:40;11.15;;;3.03;;
67696;SDS011;54486;51.442;6.778;2023-04-01T03:21:17;9.32;;;3.20;;
67696;SDS011;54486;51.442;6.778;2023-04-01T03:23:46;8.90;;;3.20;;
67696;SDS011;54486;51.442;6.778;2023-04-01T03:26:14;9.55;;;3.40;;
67696;SDS011;54486;51.442;6.778;2023-04-01T03:28:42;9.40;;;3.30;;
67696;SDS011;54486;51.442;6.778;2023-04-01T03:31:10;9.13;;;2.42;;
67696;SDS011;54486;51.442;6.778;2023-04-01T03:33:37;6.50;;;2.10;;
67696;SDS011;54486;51.442;6.778;2023-04-01T03:36:06;5.90;;;1.85;;
67696;SDS011;54486;51.442;6.778;2023-04-01T03:38:34;7.73;;;1.70;;
67696;SDS011;54486;51.442;6.778;2023-04-01T03:41:03;7.13;;;2.00;;
67696;SDS011;54486;51.442;6.778;2023-04-01T03:43:32;8.67;;;2.10;;
67696;SDS011;54486;51.442;6.778;2023-04-01T03:46:01;6.63;;;2.22;;
67696;SDS011;54486;51.442;6.778;2023-04-01T03:48:29;8.02;;;2.30;;
67696;SDS011;54486;51.442;6.778;2023-04-01T03:50:56;6.65;;;1.80;;
67696;SDS011;54486;51.442;6.778;2023-04-01T03:53:23;5.20;;;1.60;;
67696;SDS011;54486;51.442;6.778;2023-04-01T03:55:51;4.93;;;1.67;;
67696;SDS011;54486;51.442;6.778;2023-04-01T03:58:18;6.90;;;1.80;;
67696;SDS011;54486;51.442;6.778;2023-04-01T04:00:46;6.57;;;1.90;;
67696;SDS011;54486;51.442;6.778;2023-04-01T04:03:13;8.15;;;1.73;;
67696;SDS011;54486;51.442;6.778;2023-04-01T04:05:46;6.55;;;1.88;;
67696;SDS011;54486;51.442;6.778;2023-04-01T04:08:15;6.65;;;1.67;;
67696;SDS011;54486;51.442;6.778;2023-04-01T04:10:43;6.57;;;1.85;;
67696;SDS011;54486;51.442;6.778;2023-04-01T04:13:13;6.32;;;2.00;;
67696;SDS011;54486;51.442;6.778;2023-04-01T04:15:41;6.15;;;1.63;;
67696;SDS011;54486;51.442;6.778;2023-04-01T04:18:08;5.47;;;1.52;;
67696;SDS011;54486;51.442;6.778;2023-04-01T04:20:35;5.25;;;1.65;;
67696;SDS011;54486;51.442;6.778;2023-04-01T04:23:03;6.43;;;2.08;;
67696;SDS011;54486;51.442;6.778;2023-04-01T04:25:31;6.88;;;1.73;;
67696;SDS011;54486;51.442;6.778;2023-04-01T04:27:58;6.40;;;1.85;;
67696;SDS011;54486;51.442;6.778;2023-04-01T04:30:25;6.15;;;1.77;;
67696;SDS011;54486;51.442;6.778;2023-04-01T04:32:52;5.97;;;1.73;;
67696;SDS011;54486;51.442;6.778;2023-04-01T04:35:20;7.27;;;2.43;;
67696;SDS011;54486;51.442;6.778;2023-04-01T04:37:47;7.10;;;2.25;;
67696;SDS011;54486;51.442;6.778;2023-04-01T04:40:14;6.77;;;2.20;;
67696;SDS011;54486;51.442;6.778;2023-04-01T04:42:45;7.35;;;2.40;;
67696;SDS011;54486;51.442;6.778;2023-04-01T04:45:12;8.40;;;2.63;;
67696;SDS011;54486;51.442;6.778;2023-04-01T04:47:39;6.63;;;2.22;;
67696;SDS011;54486;51.442;6.778;2023-04-01T04:50:06;7.70;;;2.83;;
67696;SDS011;54486;51.442;6.778;2023-04-01T04:52:34;8.82;;;2.92;;
67696;SDS011;54486;51.442;6.778;2023-04-01T04:55:00;8.57;;;3.30;;
67696;SDS011;54486;51.442;6.778;2023-04-01T04:57:27;8.75;;;3.40;;
67696;SDS011;54486;51.442;6.778;2023-04-01T04:59:54;8.50;;;3.30;;
67696;SDS011;54486;51.442;6.778;2023-04-01T05:02:22;8.35;;;2.95;;
67696;SDS011;54486;51.442;6.778;2023-04-01T05:04:49;7.55;;;2.72;;
67696;SDS011;54486;51.442;6.778;2023-04-01T05:07:16;7.70;;;2.33;;
67696;SDS011;54486;51.442;6.778;2023-04-01T05:09:43;7.85;;;2.60;;
67696;SDS011;54486;51.442;6.778;2023-04-01T05:12:13;7.18;;;2.58;;
67696;SDS011;54486;51.442;6.778;2023-04-01T05:14:40;7.63;;;2.22;;
67696;SDS011;54486;51.442;6.778;2023-04-01T05:17:10;7.55;;;2.95;;
67696;SDS011;54486;51.442;6.778;2023-04-01T05:19:38;6.87;;;2.47;;
67696;SDS011;54486;51.442;6.778;2023-04-01T05:22:06;8.23;;;2.85;;
67696;SDS011;54486;51.442;6.778;2023-04-01T05:24:33;7.18;;;2.95;;
67696;SDS011;54486;51.442;6.778;2023-04-01T05:27:01;7.60;;;2.90;;
67696;SDS011;54486;51.442;6.778;2023-04-01T05:29:28;8.15;;;3.05;;
67696;SDS011;54486;51.442;6.778;2023-04-01T05:31:56;9.35;;;3.40;;
67696;SDS011;54486;51.442;6.778;2023-04-01T05:34:22;9.43;;;3.30;;
67696;SDS011;54486;51.442;6.778;2023-04-01T05:36:49;9.03;;;3.40;;
67696;SDS011;54486;51.442;6.778;2023-04-01T05:39:16;10.20;;;3.70;;
67696;SDS011;54486;51.442;6.778;2023-04-01T05:41:43;10.10;;;3.80;;
67696;SDS011;54486;51.442;6.778;2023-04-01T05:44:11;9.38;;;4.00;;
67696;SDS011;54486;51.442;6.778;2023-04-01T05:46:39;9.80;;;4.17;;
67696;SDS011;54486;51.442;6.778;2023-04-01T05:49:06;9.03;;;4.03;;
67696;SDS011;54486;51.442;6.778;2023-04-01T05:51:33;10.65;;;4.05;;
67696;SDS011;54486;51.442;6.778;2023-04-01T05:54:00;9.63;;;4.00;;
67696;SDS011;54486;51.442;6.778;2023-04-01T05:56:27;9.70;;;3.87;;
67696;SDS011;54486;51.442;6.778;2023-04-01T05:58:54;10.48;;;4.25;;
67696;SDS011;54486;51.442;6.778;2023-04-01T06:01:22;11.18;;;4.30;;
67696;SDS011;54486;51.442;6.778;2023-04-01T06:03:49;10.07;;;4.50;;
67696;SDS011;54486;51.442;6.778;2023-04-01T06:06:24;10.85;;;4.38;;
67696;SDS011;54486;51.442;6.778;2023-04-01T06:08:53;10.43;;;4.40;;
67696;SDS011;54486;51.442;6.778;2023-04-01T06:22:42;11.50;;;4.40;;
67696;SDS011;54486;51.442;6.778;2023-04-01T06:25:38;10.23;;;4.40;;
67696;SDS011;54486;51.442;6.778;2023-04-01T06:30:46;10.63;;;4.43;;
67696;SDS011;54486;51.442;6.778;2023-04-01T06:47:44;9.68;;;4.05;;
67696;SDS011;54486;51.442;6.778;2023-04-01T06:53:06;9.43;;;4.30;;
67696;SDS011;54486;51.442;6.778;2023-04-01T06:55:51;10.48;;;4.28;;
67696;SDS011;54486;51.442;6.778;2023-04-01T07:01:07;9.85;;;4.18;;
67696;SDS011;54486;51.442;6.778;2023-04-01T07:03:42;9.37;;;3.87;;
67696;SDS011;54486;51.442;6.778;2023-04-01T07:06:31;8.82;;;3.78;;
67696;SDS011;54486;51.442;6.778;2023-04-01T07:09:09;9.93;;;4.40;;
67696;SDS011;54486;51.442;6.778;2023-04-01T07:11:39;10.18;;;4.38;;
67696;SDS011;54486;51.442;6.778;2023-04-01T07:16:45;12.77;;;4.75;;
67696;SDS011;54486;51.442;6.778;2023-04-01T07:19:26;11.68;;;4.43;;
67696;SDS011;54486;51.442;6.778;2023-04-01T07:24:57;9.02;;;3.67;;
67696;SDS011;54486;51.442;6.778;2023-04-01T07:27:29;8.63;;;3.88;;
67696;SDS011;54486;51.442;6.778;2023-04-01T07:29:57;8.85;;;4.10;;
67696;SDS011;54486;51.442;6.778;2023-04-01T07:32:42;9.10;;;3.90;;
67696;SDS011;54486;51.442;6.778;2023-04-01T07:49:04;9.68;;;4.30;;
67696;SDS011;54486;51.442;6.778;2023-04-01T07:55:01;8.40;;;3.67;;
67696;SDS011;54486;51.442;6.778;2023-04-01T07:58:04;9.95;;;4.00;;
67696;SDS011;54486;51.442;6.778;2023-04-01T08:03:31;9.80;;;4.43;;
67696;SDS011;54486;51.442;6.778;2023-04-01T08:08:59;10.97;;;4.97;;
67696;SDS011;54486;51.442;6.778;2023-04-01T08:11:55;10.07;;;4.90;;
67696;SDS011;54486;51.442;6.778;2023-04-01T08:17:19;9.90;;;4.23;;
67696;SDS011;54486;51.442;6.778;2023-04-01T08:23:15;11.32;;;4.50;;
67696;SDS011;54486;51.442;6.778;2023-04-01T08:28:37;8.98;;;3.90;;
67696;SDS011;54486;51.442;6.778;2023-04-01T08:31:13;9.77;;;4.30;;
67696;SDS011;54486;51.442;6.778;2023-04-01T08:33:50;8.88;;;3.95;;
67696;SDS011;54486;51.442;6.778;2023-04-01T08:39:15;9.93;;;4.10;;
67696;SDS011;54486;51.442;6.778;2023-04-01T08:53:10;10.18;;;4.00;;
67696;SDS011;54486;51.442;6.778;2023-04-01T08:56:01;9.60;;;4.20;;
67696;SDS011;54486;51.442;6.778;2023-04-01T09:16:13;11.63;;;4.93;;
67696;SDS011;54486;51.442;6.778;2023-04-01T09:24:20;11.53;;;5.37;;
67696;SDS011;54486;51.442;6.778;2023-04-01T09:27:19;12.18;;;5.43;;
67696;SDS011;54486;51.442;6.778;2023-04-01T09:35:24;12.45;;;6.05;;
67696;SDS011;54486;51.442;6.778;2023-04-01T09:41:01;12.93;;;6.00;;
67696;SDS011;54486;51.442;6.778;2023-04-01T09:44:22;12.55;;;6.10;;
67696;SDS011;54486;51.442;6.778;2023-04-01T09:52:20;13.85;;;6.32;;
67696;SDS011;54486;51.442;6.778;2023-04-01T09:57:39;15.17;;;7.03;;
67696;SDS011;54486;51.442;6.778;2023-04-01T10:00:32;13.77;;;7.07;;
67696;SDS011;54486;51.442;6.778;2023-04-01T10:08:50;14.88;;;7.63;;
67696;SDS011;54486;51.442;6.778;2023-04-01T10:11:51;15.70;;;7.78;;
67696;SDS011;54486;51.442;6.778;2023-04-01T10:29:02;14.93;;;7.60;;
67696;SDS011;54486;51.442;6.778;2023-04-01T10:31:41;14.77;;;7.38;;
67696;SDS011;54486;51.442;6.778;2023-04-01T10:34:34;14.87;;;7.23;;
67696;SDS011;54486;51.442;6.778;2023-04-01T10:37:15;15.40;;;7.45;;
67696;SDS011;54486;51.442;6.778;2023-04-01T10:56:20;15.68;;;7.90;;
67696;SDS011;54486;51.442;6.778;2023-04-01T10:59:20;16.60;;;7.63;;
67696;SDS011;54486;51.442;6.778;2023-04-01T11:19:24;16.40;;;7.87;;
67696;SDS011;54486;51.442;6.778;2023-04-01T11:24:45;17.20;;;8.30;;
67696;SDS011;54486;51.442;6.778;2023-04-01T11:33:02;17.45;;;8.50;;
67696;SDS011;54486;51.442;6.778;2023-04-01T11:35:43;16.58;;;9.18;;
67696;SDS011;54486;51.442;6.778;2023-04-01T11:44:16;16.40;;;8.45;;
67696;SDS011;54486;51.442;6.778;2023-04-01T11:53:02;16.42;;;8.85;;
67696;SDS011;54486;51.442;6.778;2023-04-01T12:07:06;15.00;;;8.53;;
67696;SDS011;54486;51.442;6.778;2023-04-01T12:16:04;15.50;;;7.60;;
67696;SDS011;54486;51.442;6.778;2023-04-01T12:18:48;14.57;;;7.65;;
67696;SDS011;54486;51.442;6.778;2023-04-01T12:21:26;14.32;;;7.22;;
67696;SDS011;54486;51.442;6.778;2023-04-01T12:32:45;12.90;;;6.60;;
67696;SDS011;54486;51.442;6.778;2023-04-01T12:36:11;12.98;;;6.55;;
67696;SDS011;54486;51.442;6.778;2023-04-01T12:47:39;13.10;;;6.30;;
67696;SDS011;54486;51.442;6.778;2023-04-01T12:52:58;14.10;;;6.70;;
67696;SDS011;54486;51.442;6.778;2023-04-01T12:55:44;14.05;;;6.35;;
67696;SDS011;54486;51.442;6.778;2023-04-01T13:09:36;13.48;;;6.53;;
67696;SDS011;54486;51.442;6.778;2023-04-01T13:15:24;14.02;;;6.40;;
67696;SDS011;54486;51.442;6.778;2023-04-01T13:26:25;13.52;;;6.40;;
67696;SDS011;54486;51.442;6.778;2023-04-01T13:31:53;13.40;;;6.18;;
67696;SDS011;54486;51.442;6.778;2023-04-01T13:42:38;14.77;;;6.78;;
67696;SDS011;54486;51.442;6.778;2023-04-01T13:45:19;14.88;;;6.85;;
67696;SDS011;54486;51.442;6.778;2023-04-01T13:50:23;15.93;;;7.37;;
67696;SDS011;54486;51.442;6.778;2023-04-01T14:15:04;13.30;;;6.53;;
67696;SDS011;54486;51.442;6.778;2023-04-01T14:17:43;12.90;;;5.88;;
67696;SDS011;54486;51.442;6.778;2023-04-01T14:20:25;12.30;;;6.18;;
67696;SDS011;54486;51.442;6.778;2023-04-01T14:23:06;13.05;;;5.70;;
67696;SDS011;54486;51.442;6.778;2023-04-01T14:25:54;14.00;;;6.00;;
67696;SDS011;54486;51.442;6.778;2023-04-01T14:28:34;12.70;;;5.93;;
67696;SDS011;54486;51.442;6.778;2023-04-01T14:31:34;11.98;;;5.78;;
67696;SDS011;54486;51.442;6.778;2023-04-01T14:46:14;11.85;;;5.30;;
67696;SDS011;54486;51.442;6.778;2023-04-01T14:48:50;13.68;;;5.70;;
67696;SDS011;54486;51.442;6.778;2023-04-01T14:51:34;11.88;;;5.32;;
67696;SDS011;54486;51.442;6.778;2023-04-01T14:56:47;12.45;;;4.75;;
67696;SDS011;54486;51.442;6.778;2023-04-01T15:18:21;13.35;;;5.85;;
67696;SDS011;54486;51.442;6.778;2023-04-01T15:29:26;12.45;;;5.43;;
67696;SDS011;54486;51.442;6.778;2023-04-01T15:32:02;12.53;;;5.33;;
67696;SDS011;54486;51.442;6.778;2023-04-01T15:40:42;10.60;;;5.10;;
67696;SDS011;54486;51.442;6.778;2023-04-01T15:51:28;9.95;;;4.65;;
67696;SDS011;54486;51.442;6.778;2023-04-01T16:20:40;9.23;;;4.50;;
67696;SDS011;54486;51.442;6.778;2023-04-01T16:29:28;9.20;;;4.33;;
67696;SDS011;54486;51.442;6.778;2023-04-01T16:40:26;11.27;;;5.32;;
67696;SDS011;54486;51.442;6.778;2023-04-01T17:00:22;12.48;;;5.60;;
67696;SDS011;54486;51.442;6.778;2023-04-01T17:02:45;13.60;;;6.53;;
67696;SDS011;54486;51.442;6.778;2023-04-01T17:05:17;13.43;;;6.47;;
67696;SDS011;54486;51.442;6.778;2023-04-01T17:13:29;12.52;;;6.18;;
67696;SDS011;54486;51.442;6.778;2023-04-01T17:16:38;14.50;;;7.10;;
67696;SDS011;54486;51.442;6.778;2023-04-01T17:36:21;14.48;;;7.43;;
67696;SDS011;54486;51.442;6.778;2023-04-01T17:41:36;15.68;;;7.47;;
67696;SDS011;54486;51.442;6.778;2023-04-01T17:53:13;15.43;;;7.18;;
67696;SDS011;54486;51.442;6.778;2023-04-01T17:58:18;14.55;;;8.32;;
67696;SDS011;54486;51.442;6.778;2023-04-01T18:00:59;16.92;;;9.68;;
67696;SDS011;54486;51.442;6.778;2023-04-01T18:06:17;16.25;;;8.77;;
67696;SDS011;54486;51.442;6.778;2023-04-01T18:11:45;16.42;;;9.50;;
67696;SDS011;54486;51.442;6.778;2023-04-01T18:20:29;17.98;;;10.25;;
67696;SDS011;54486;51.442;6.778;2023-04-01T18:23:02;17.27;;;9.47;;
67696;SDS011;54486;51.442;6.778;2023-04-01T18:25:42;17.98;;;8.98;;
67696;SDS011;54486;51.442;6.778;2023-04-01T18:41:36;18.85;;;9.38;;
67696;SDS011;54486;51.442;6.778;2023-04-01T18:44:18;18.10;;;9.40;;
67696;SDS011;54486;51.442;6.778;2023-04-01T18:52:37;23.90;;;11.23;;
67696;SDS011;54486;51.442;6.778;2023-04-01T18:55:46;23.35;;;11.93;;
67696;SDS011;54486;51.442;6.778;2023-04-01T19:01:12;19.42;;;10.02;;
67696;SDS011;54486;51.442;6.778;2023-04-01T19:06:41;17.33;;;9.15;;
67696;SDS011;54486;51.442;6.778;2023-04-01T19:09:19;17.60;;;8.55;;
67696;SDS011;54486;51.442;6.778;2023-04-01T19:20:22;14.80;;;6.80;;
67696;SDS011;54486;51.442;6.778;2023-04-01T19:25:54;11.05;;;5.97;;
67696;SDS011;54486;51.442;6.778;2023-04-01T19:34:25;10.15;;;4.78;;
67696;SDS011;54486;51.442;6.778;2023-04-01T19:37:04;8.98;;;4.15;;
67696;SDS011;54486;51.442;6.778;2023-04-01T19:43:39;8.75;;;4.22;;
67696;SDS011;54486;51.442;6.778;2023-04-01T19:46:14;7.82;;;3.65;;
67696;SDS011;54486;51.442;6.778;2023-04-01T19:49:03;8.85;;;3.80;;
67696;SDS011;54486;51.442;6.778;2023-04-01T19:56:42;8.30;;;3.17;;
67696;SDS011;54486;51.442;6.778;2023-04-01T20:04:36;6.60;;;2.67;;
67696;SDS011;54486;51.442;6.778;2023-04-01T20:07:10;7.30;;;3.45;;
67696;SDS011;54486;51.442;6.778;2023-04-01T20:09:46;8.50;;;3.58;;
67696;SDS011;54486;51.442;6.778;2023-04-01T20:18:05;8.27;;;3.47;;
67696;SDS011;54486;51.442;6.778;2023-04-01T20:20:53;8.32;;;4.00;;
67696;SDS011;54486;51.442;6.778;2023-04-01T20:23:43;8.10;;;3.65;;
67696;SDS011;54486;51.442;6.778;2023-04-01T20:26:20;8.13;;;4.10;;
67696;SDS011;54486;51.442;6.778;2023-04-01T20:31:35;8.45;;;4.00;;
67696;SDS011;54486;51.442;6.778;2023-04-01T20:34:22;8.65;;;3.75;;
67696;SDS011;54486;51.442;6.778;2023-04-01T20:37:15;8.60;;;4.30;;
67696;SDS011;54486;51.442;6.778;2023-04-01T20:40:14;9.90;;;4.70;;
67696;SDS011;54486;51.442;6.778;2023-04-01T20:45:27;8.63;;;4.50;;
67696;SDS011;54486;51.442;6.778;2023-04-01T20:50:32;8.48;;;3.95;;
67696;SDS011;54486;51.442;6.778;2023-04-01T21:07:50;7.43;;;3.25;;
67696;SDS011;54486;51.442;6.778;2023-04-01T21:27:50;7.15;;;2.95;;
67696;SDS011;54486;51.442;6.778;2023-04-01T21:39:09;7.18;;;3.15;;
67696;SDS011;54486;51.442;6.778;2023-04-01T22:12:51;8.98;;;3.90;;
67696;SDS011;54486;51.442;6.778;2023-04-01T22:21:27;8.65;;;4.15;;
67696;SDS011;54486;51.442;6.778;2023-04-01T22:26:37;8.73;;;3.83;;
67696;SDS011;54486;51.442;6.778;2023-04-01T22:29:17;8.47;;;4.30;;
67696;SDS011;54486;51.442;6.778;2023-04-01T22:32:10;9.27;;;4.40;;
67696;SDS011;54486;51.442;6.778;2023-04-01T22:42:45;9.82;;;5.30;;
67696;SDS011;54486;51.442;6.778;2023-04-01T22:48:25;8.88;;;4.43;;
67696;SDS011;54486;51.442;6.778;2023-04-01T22:51:17;9.40;;;4.75;;
67696;SDS011;54486;51.442;6.778;2023-04-01T22:56:31;9.15;;;4.65;;
67696;SDS011;54486;51.442;6.778;2023-04-01T22:59:17;9.82;;;5.03;;
67696;SDS011;54486;51.442;6.778;2023-04-01T23:02:11;8.68;;;4.45;;
67696;SDS011;54486;51.442;6.778;2023-04-01T23:04:42;8.80;;;4.47;;
67696;SDS011;54486;51.442;6.778;2023-04-01T23:09:53;9.02;;;4.40;;
67696;SDS011;54486;51.442;6.778;2023-04-01T23:12:23;8.43;;;3.80;;
67696;SDS011;54486;51.442;6.778;2023-04-01T23:14:52;9.27;;;4.80;;
67696;SDS011;54486;51.442;6.778;2023-04-01T23:17:43;9.45;;;4.07;;
67696;SDS011;54486;51.442;6.778;2023-04-01T23:20:24;8.73;;;4.35;;
67696;SDS011;54486;51.442;6.778;2023-04-01T23:28:48;9.77;;;4.78;;
67696;SDS011;54486;51.442;6.778;2023-04-01T23:31:30;9.77;;;4.78;;
67696;SDS011;54486;51.442;6.778;2023-04-01T23:34:00;9.23;;;4.97;;
67696;SDS011;54486;51.442;6.778;2023-04-01T23:36:29;9.27;;;4.60;;
67696;SDS011;54486;51.442;6.778;2023-04-01T23:38:57;9.50;;;4.63;;
67696;SDS011;54486;51.442;6.778;2023-04-01T23:41:30;10.80;;;4.78;;
67696;SDS011;54486;51.442;6.778;2023-04-01T23:44:00;8.35;;;4.05;;
67696;SDS011;54486;51.442;6.778;2023-04-01T23:46:36;9.50;;;5.05;;
67696;SDS011;54486;51.442;6.778;2023-04-01T23:49:06;8.88;;;4.57;;
67696;SDS011;54486;51.442;6.778;2023-04-01T23:52:02;8.65;;;4.03;;
67696;SDS011;54486;51.442;6.778;2023-04-01T23:54:56;8.77;;;4.40;;
67696;SDS011;54486;51.442;6.778;2023-04-01T23:57:27;8.70;;;4.50;;
